Time;durP1;ratioP1;P1;durP2;ratioP2;P2;SDS_P1;SDS_P2;PMS_P1;PMS_P2;Temp;Humidity;BMP_temperature;BMP_pressure;BME280_temperature;BME280_humidity;BME280_pressure;Samples;Min_cycle;Max_cycle;Signal;HPM_P1;HPM_P2
2022/01/13 00:00:14;;;;;;;53.81;18.47;;;;;;;;;;342276;154;866437;-57
2022/01/13 00:01:18;;;;;;;54.71;18.52;;;;;;;;;;343521;153;857383;-59
2022/01/13 00:02:19;;;;;;;52.26;18.48;;;;;;;;;;343749;153;857973;-58
2022/01/13 00:03:21;;;;;;;48.87;18.92;;;;;;;;;;344031;154;866680;-58
2022/01/13 00:04:23;;;;;;;53.16;18.37;;;;;;;;;;344146;154;858698;-58
2022/01/13 00:05:28;;;;;;;38.25;14.52;;;;;;;;;;342510;153;859180;-58
2022/01/13 00:06:28;;;;;;;43.28;13.38;;;;;;;;;;344127;153;857422;-58
2022/01/13 00:07:30;;;;;;;38.38;11.85;;;;;;;;;;340980;154;866892;-58
2022/01/13 00:08:32;;;;;;;49.86;16.64;;;;;;;;;;345688;156;866068;-57
2022/01/13 00:09:33;;;;;;;54.61;18.86;;;;;;;;;;344539;153;867271;-57
2022/01/13 00:10:35;;;;;;;54.71;18.33;;;;;;;;;;343860;153;866160;-57
2022/01/13 00:11:37;;;;;;;60.33;20.81;;;;;;;;;;345211;154;858000;-56
2022/01/13 00:12:42;;;;;;;57.56;19.44;;;;;;;;;;343419;153;866968;-57
2022/01/13 00:13:52;;;;;;;57.77;17.74;;;;;;;;;;342908;153;866903;-57
2022/01/13 00:17:33;;;;;;;46.08;17.13;;;;;;;;;;342938;153;859042;-57
2022/01/13 00:18:40;;;;;;;50.06;18.44;;;;;;;;;;345163;153;857320;-57
2022/01/13 00:22:01;;;;;;;52.58;17.76;;;;;;;;;;345358;153;859030;-57
2022/01/13 00:24:20;;;;;;;56.10;17.47;;;;;;;;;;341610;154;857501;-57
2022/01/13 00:25:22;;;;;;;51.26;18.07;;;;;;;;;;342282;154;857551;-58
2022/01/13 00:26:26;;;;;;;46.21;16.29;;;;;;;;;;341620;156;866062;-57
2022/01/13 00:27:29;;;;;;;50.46;18.07;;;;;;;;;;344031;153;859254;-57
2022/01/13 00:28:31;;;;;;;53.85;18.86;;;;;;;;;;342398;154;857474;-57
2022/01/13 00:29:32;;;;;;;52.79;17.30;;;;;;;;;;346470;154;857605;-57
2022/01/13 00:30:35;;;;;;;51.47;18.42;;;;;;;;;;345498;153;865175;-57
2022/01/13 00:31:40;;;;;;;55.30;18.42;;;;;;;;;;342518;154;859178;-57
2022/01/13 00:32:40;;;;;;;56.75;18.09;;;;;;;;;;344756;156;859530;-57
2022/01/13 00:33:45;;;;;;;57.84;18.96;;;;;;;;;;346001;153;857511;-56
2022/01/13 00:34:45;;;;;;;52.17;17.75;;;;;;;;;;342429;153;866223;-58
2022/01/13 00:35:47;;;;;;;55.09;17.31;;;;;;;;;;342899;153;857335;-56
2022/01/13 00:36:49;;;;;;;58.65;19.13;;;;;;;;;;344517;153;866698;-52
2022/01/13 00:37:50;;;;;;;50.91;17.39;;;;;;;;;;344181;153;857384;-55
2022/01/13 00:38:52;;;;;;;53.48;17.59;;;;;;;;;;345312;154;866469;-56
2022/01/13 00:39:54;;;;;;;50.11;18.03;;;;;;;;;;339650;158;865750;-56
2022/01/13 00:40:55;;;;;;;51.17;18.75;;;;;;;;;;343302;153;866286;-52
2022/01/13 00:41:57;;;;;;;46.21;17.36;;;;;;;;;;342726;153;859857;-55
2022/01/13 00:42:58;;;;;;;52.04;17.66;;;;;;;;;;345272;153;866724;-54
2022/01/13 00:44:01;;;;;;;60.05;18.77;;;;;;;;;;341227;153;867831;-57
2022/01/13 00:45:04;;;;;;;56.21;18.27;;;;;;;;;;343567;154;866168;-56
2022/01/13 00:46:07;;;;;;;57.02;19.12;;;;;;;;;;343805;154;859231;-57
2022/01/13 00:47:10;;;;;;;45.23;16.35;;;;;;;;;;343816;156;858601;-57
2022/01/13 00:48:11;;;;;;;45.56;16.62;;;;;;;;;;344750;153;859727;-57
2022/01/13 00:49:13;;;;;;;49.49;19.34;;;;;;;;;;341964;156;858314;-57
2022/01/13 00:50:18;;;;;;;45.40;18.01;;;;;;;;;;343110;153;865682;-59
2022/01/13 00:51:19;;;;;;;59.47;19.58;;;;;;;;;;345490;153;857351;-57
2022/01/13 00:52:21;;;;;;;45.18;15.63;;;;;;;;;;342341;153;867550;-57
2022/01/13 00:53:22;;;;;;;49.25;17.73;;;;;;;;;;345984;153;857945;-57
2022/01/13 00:54:24;;;;;;;56.70;17.48;;;;;;;;;;341845;156;857387;-57
2022/01/13 00:55:33;;;;;;;47.35;17.63;;;;;;;;;;341919;154;865197;-57
2022/01/13 00:56:29;;;;;;;46.34;16.21;;;;;;;;;;342298;153;865122;-57
2022/01/13 00:57:32;;;;;;;47.38;17.01;;;;;;;;;;345592;156;865200;-57
2022/01/13 00:58:34;;;;;;;46.63;18.14;;;;;;;;;;345612;153;866655;-56
2022/01/13 00:59:36;;;;;;;46.27;16.87;;;;;;;;;;344123;153;859589;-56
2022/01/13 01:00:37;;;;;;;56.74;18.22;;;;;;;;;;342790;153;860296;-56
2022/01/13 01:01:44;;;;;;;49.50;17.46;;;;;;;;;;344076;153;866090;-57
2022/01/13 01:02:45;;;;;;;50.66;17.93;;;;;;;;;;342251;153;864890;-57
2022/01/13 01:03:48;;;;;;;47.14;17.13;;;;;;;;;;343885;154;859152;-57
2022/01/13 01:04:49;;;;;;;43.65;16.59;;;;;;;;;;344789;153;860292;-57
2022/01/13 01:05:51;;;;;;;49.21;18.56;;;;;;;;;;343993;153;864894;-57
2022/01/13 01:06:52;;;;;;;47.63;18.16;;;;;;;;;;344719;154;865143;-57
2022/01/13 01:07:54;;;;;;;49.62;18.76;;;;;;;;;;340452;156;864933;-57
2022/01/13 01:08:56;;;;;;;54.07;19.48;;;;;;;;;;345746;153;866845;-57
2022/01/13 01:10:01;;;;;;;53.50;18.42;;;;;;;;;;343898;153;865232;-56
2022/01/13 01:11:02;;;;;;;48.78;17.60;;;;;;;;;;341766;153;858414;-57
2022/01/13 01:12:04;;;;;;;47.32;16.89;;;;;;;;;;345163;153;857377;-59
2022/01/13 01:13:15;;;;;;;52.01;17.75;;;;;;;;;;343391;153;857463;-59
2022/01/13 01:14:17;;;;;;;43.54;16.54;;;;;;;;;;343498;153;857484;-59
2022/01/13 01:15:19;;;;;;;49.78;16.95;;;;;;;;;;345550;153;857412;-57
2022/01/13 01:16:23;;;;;;;43.54;16.47;;;;;;;;;;343741;153;857427;-57
2022/01/13 01:17:25;;;;;;;49.40;16.45;;;;;;;;;;345006;153;865024;-57
2022/01/13 01:19:50;;;;;;;44.38;15.62;;;;;;;;;;343995;153;866804;-57
2022/01/13 01:21:15;;;;;;;51.53;17.08;;;;;;;;;;342665;153;857477;-57
2022/01/13 01:23:13;;;;;;;41.82;16.72;;;;;;;;;;328640;159;857653;-57
2022/01/13 01:25:48;;;;;;;43.34;16.96;;;;;;;;;;324591;163;857437;-57
2022/01/13 01:27:38;;;;;;;46.42;17.07;;;;;;;;;;336101;154;859060;-56
2022/01/13 01:28:44;;;;;;;49.46;16.63;;;;;;;;;;343448;154;857443;-56
2022/01/13 01:29:45;;;;;;;54.73;18.36;;;;;;;;;;343413;153;865246;-57
2022/01/13 01:30:45;;;;;;;46.31;16.71;;;;;;;;;;343341;153;857689;-57
2022/01/13 01:31:50;;;;;;;48.42;17.51;;;;;;;;;;346711;153;866321;-57
2022/01/13 01:32:51;;;;;;;48.89;18.07;;;;;;;;;;344120;156;858813;-57
2022/01/13 01:35:12;;;;;;;43.83;17.11;;;;;;;;;;344355;153;865270;-57
2022/01/13 01:36:12;;;;;;;51.42;17.91;;;;;;;;;;344842;155;857401;-57
2022/01/13 01:37:17;;;;;;;46.13;17.70;;;;;;;;;;343584;153;857787;-57
2022/01/13 01:38:19;;;;;;;44.88;17.99;;;;;;;;;;342745;153;864588;-56
2022/01/13 01:39:21;;;;;;;51.29;17.81;;;;;;;;;;345314;153;857451;-57
2022/01/13 01:40:23;;;;;;;52.61;17.71;;;;;;;;;;345104;153;857986;-57
2022/01/13 01:41:24;;;;;;;53.51;17.86;;;;;;;;;;341188;153;857408;-57
2022/01/13 01:42:26;;;;;;;47.03;17.09;;;;;;;;;;343444;153;865028;-57
2022/01/13 01:43:27;;;;;;;55.09;17.57;;;;;;;;;;342826;153;865104;-56
2022/01/13 01:44:33;;;;;;;52.11;18.39;;;;;;;;;;343538;153;865141;-57
2022/01/13 01:45:41;;;;;;;51.14;17.57;;;;;;;;;;343699;153;865076;-57
2022/01/13 01:46:44;;;;;;;46.68;17.69;;;;;;;;;;344946;153;866028;-57
2022/01/13 01:47:43;;;;;;;42.47;15.90;;;;;;;;;;343041;153;865066;-57
2022/01/13 01:48:45;;;;;;;49.59;17.48;;;;;;;;;;344802;154;860631;-57
2022/01/13 01:49:48;;;;;;;51.45;16.25;;;;;;;;;;340688;156;861858;-57
2022/01/13 01:50:58;;;;;;;48.19;15.72;;;;;;;;;;344415;153;865040;-57
2022/01/13 01:51:54;;;;;;;45.17;16.11;;;;;;;;;;341902;153;865631;-56
2022/01/13 01:52:56;;;;;;;46.19;16.29;;;;;;;;;;343977;153;864973;-57
2022/01/13 01:53:57;;;;;;;41.64;15.84;;;;;;;;;;344530;153;859670;-57
2022/01/13 01:54:59;;;;;;;41.63;14.86;;;;;;;;;;343910;153;864724;-57
2022/01/13 01:56:01;;;;;;;52.79;16.66;;;;;;;;;;343537;153;864434;-57
2022/01/13 01:57:03;;;;;;;52.55;18.38;;;;;;;;;;341647;156;864245;-57
2022/01/13 01:58:04;;;;;;;40.34;16.86;;;;;;;;;;345947;153;865194;-58
2022/01/13 01:59:07;;;;;;;47.12;15.71;;;;;;;;;;342281;153;859196;-57
2022/01/13 02:00:10;;;;;;;49.95;16.17;;;;;;;;;;344502;153;865536;-57
2022/01/13 02:01:13;;;;;;;51.39;16.56;;;;;;;;;;342705;153;858309;-57
2022/01/13 02:02:15;;;;;;;43.83;16.47;;;;;;;;;;345401;153;859186;-57
2022/01/13 02:03:18;;;;;;;51.25;15.88;;;;;;;;;;344943;156;864895;-57
2022/01/13 02:04:19;;;;;;;48.52;18.03;;;;;;;;;;343039;154;865135;-57
2022/01/13 02:05:21;;;;;;;27.65;9.43;;;;;;;;;;343997;153;867061;-57
2022/01/13 02:06:23;;;;;;;45.26;14.85;;;;;;;;;;341519;154;857430;-57
2022/01/13 02:07:24;;;;;;;43.76;16.28;;;;;;;;;;348663;153;857566;-57
2022/01/13 02:08:26;;;;;;;50.01;17.50;;;;;;;;;;344643;153;866284;-57
2022/01/13 02:09:27;;;;;;;42.79;15.26;;;;;;;;;;342267;154;866688;-57
2022/01/13 02:10:29;;;;;;;46.29;16.56;;;;;;;;;;345571;153;860645;-57
2022/01/13 02:11:31;;;;;;;39.64;16.13;;;;;;;;;;343919;153;866929;-57
2022/01/13 02:13:35;;;;;;;36.86;12.63;;;;;;;;;;344739;153;857625;-57
2022/01/13 02:16:05;;;;;;;41.97;13.97;;;;;;;;;;344954;153;858738;-57
2022/01/13 02:17:10;;;;;;;42.73;14.67;;;;;;;;;;341210;153;857393;-56
2022/01/13 02:18:11;;;;;;;44.70;14.55;;;;;;;;;;344447;156;857375;-57
2022/01/13 02:19:12;;;;;;;39.50;14.16;;;;;;;;;;345378;153;859152;-57
2022/01/13 02:20:18;;;;;;;43.79;14.87;;;;;;;;;;341094;154;866854;-57
2022/01/13 02:21:20;;;;;;;42.58;15.23;;;;;;;;;;343561;156;864921;-57
2022/01/13 02:22:22;;;;;;;40.01;15.60;;;;;;;;;;345431;153;860172;-57
2022/01/13 02:23:28;;;;;;;43.43;14.43;;;;;;;;;;342655;153;857369;-57
2022/01/13 02:24:30;;;;;;;49.19;16.85;;;;;;;;;;343157;153;857515;-57
2022/01/13 02:25:32;;;;;;;34.01;13.82;;;;;;;;;;343912;153;857587;-57
2022/01/13 02:26:33;;;;;;;35.03;13.52;;;;;;;;;;343404;153;858845;-57
2022/01/13 02:27:35;;;;;;;45.88;15.25;;;;;;;;;;342279;153;866230;-57
2022/01/13 02:28:38;;;;;;;35.21;14.44;;;;;;;;;;339927;153;865546;-57
2022/01/13 02:29:39;;;;;;;46.83;15.66;;;;;;;;;;344852;153;865223;-56
2022/01/13 02:30:41;;;;;;;39.54;14.69;;;;;;;;;;344086;154;859765;-57
2022/01/13 02:31:43;;;;;;;38.57;13.40;;;;;;;;;;345833;153;864614;-57
2022/01/13 02:32:44;;;;;;;45.61;15.44;;;;;;;;;;343547;153;865335;-57
2022/01/13 02:33:46;;;;;;;41.57;13.79;;;;;;;;;;342204;154;858961;-57
2022/01/13 02:34:48;;;;;;;42.19;16.49;;;;;;;;;;343150;153;858346;-57
2022/01/13 02:35:49;;;;;;;44.94;14.55;;;;;;;;;;342459;156;865007;-57
2022/01/13 02:36:52;;;;;;;34.44;12.74;;;;;;;;;;344496;153;865056;-57
2022/01/13 02:37:54;;;;;;;46.08;14.87;;;;;;;;;;342465;153;865074;-57
2022/01/13 02:38:55;;;;;;;45.67;13.53;;;;;;;;;;344316;153;857292;-56
2022/01/13 02:39:57;;;;;;;49.94;14.73;;;;;;;;;;344461;153;865064;-56
2022/01/13 02:40:59;;;;;;;32.59;13.36;;;;;;;;;;342516;153;857346;-56
2022/01/13 02:42:01;;;;;;;39.46;12.65;;;;;;;;;;342328;153;865919;-55
2022/01/13 02:43:03;;;;;;;35.90;13.93;;;;;;;;;;341142;153;857047;-55
2022/01/13 02:44:14;;;;;;;42.81;16.58;;;;;;;;;;345190;153;857390;-57
2022/01/13 02:45:16;;;;;;;40.71;15.33;;;;;;;;;;340481;154;865968;-59
2022/01/13 02:46:43;;;;;;;41.82;15.36;;;;;;;;;;341310;153;866557;-57
2022/01/13 02:47:47;;;;;;;;;;;;;;;;;;342798;154;857895;-57
2022/01/13 02:48:37;;;;;;;34.07;12.95;;;;;;;;;;343461;153;857865;-57
2022/01/13 02:49:39;;;;;;;44.58;14.54;;;;;;;;;;344175;156;859125;-56
2022/01/13 02:50:41;;;;;;;50.21;13.38;;;;;;;;;;344035;153;866925;-57
2022/01/13 02:51:43;;;;;;;41.66;14.36;;;;;;;;;;341410;154;866836;-56
2022/01/13 02:52:45;;;;;;;31.63;11.46;;;;;;;;;;342619;154;866897;-58
2022/01/13 02:53:46;;;;;;;43.45;15.58;;;;;;;;;;341987;153;866124;-55
2022/01/13 02:54:48;;;;;;;38.79;15.24;;;;;;;;;;344377;154;866768;-56
2022/01/13 02:55:50;;;;;;;33.94;13.25;;;;;;;;;;342867;153;865524;-57
2022/01/13 02:56:53;;;;;;;43.04;15.74;;;;;;;;;;342119;153;867035;-57
2022/01/13 02:57:54;;;;;;;41.95;15.71;;;;;;;;;;345182;153;866863;-57
2022/01/13 02:58:56;;;;;;;30.89;10.39;;;;;;;;;;342311;153;858239;-57
2022/01/13 02:59:58;;;;;;;36.04;13.07;;;;;;;;;;340240;156;866342;-59
2022/01/13 03:01:00;;;;;;;44.82;15.82;;;;;;;;;;344810;153;860521;-57
2022/01/13 03:02:01;;;;;;;48.76;15.51;;;;;;;;;;341855;153;859670;-57
2022/01/13 03:03:03;;;;;;;37.97;12.70;;;;;;;;;;344003;154;865842;-56
2022/01/13 03:04:07;;;;;;;28.67;11.02;;;;;;;;;;342282;153;858142;-57
2022/01/13 03:05:12;;;;;;;35.91;13.04;;;;;;;;;;343559;153;865191;-56
2022/01/13 03:06:13;;;;;;;42.95;14.08;;;;;;;;;;344204;153;859048;-57
2022/01/13 03:07:15;;;;;;;30.41;12.40;;;;;;;;;;343873;156;857603;-58
2022/01/13 03:08:16;;;;;;;47.84;16.83;;;;;;;;;;344644;153;860601;-57
2022/01/13 03:09:21;;;;;;;43.88;16.67;;;;;;;;;;343279;154;864923;-56
2022/01/13 03:10:22;;;;;;;47.71;16.64;;;;;;;;;;343120;153;865138;-57
2022/01/13 03:11:31;;;;;;;42.05;16.97;;;;;;;;;;342300;153;859190;-57
2022/01/13 03:12:28;;;;;;;50.51;18.29;;;;;;;;;;343227;153;865556;-57
2022/01/13 03:13:30;;;;;;;56.43;18.37;;;;;;;;;;344247;154;866799;-58
2022/01/13 03:14:32;;;;;;;48.68;16.30;;;;;;;;;;343751;153;857922;-58
2022/01/13 03:15:33;;;;;;;44.20;13.39;;;;;;;;;;343039;154;857453;-58
2022/01/13 03:16:35;;;;;;;50.46;18.99;;;;;;;;;;342654;153;865563;-59
2022/01/13 03:17:36;;;;;;;51.92;16.47;;;;;;;;;;342870;153;865420;-58
2022/01/13 03:18:38;;;;;;;40.05;12.64;;;;;;;;;;343604;153;865269;-58
2022/01/13 03:19:40;;;;;;;29.02;9.66;;;;;;;;;;343700;153;864137;-57
2022/01/13 03:20:41;;;;;;;30.16;10.01;;;;;;;;;;344337;153;865295;-58
2022/01/13 03:21:43;;;;;;;41.33;14.51;;;;;;;;;;342363;153;865241;-59
2022/01/13 03:22:45;;;;;;;17.36;7.31;;;;;;;;;;342294;154;858004;-56
2022/01/13 03:23:47;;;;;;;21.66;9.40;;;;;;;;;;342853;153;864761;-56
2022/01/13 03:24:48;;;;;;;36.16;12.76;;;;;;;;;;340629;153;864916;-56
2022/01/13 03:25:50;;;;;;;15.68;5.76;;;;;;;;;;344450;153;865012;-57
2022/01/13 03:26:53;;;;;;;32.14;11.19;;;;;;;;;;343727;153;865045;-57
2022/01/13 03:28:03;;;;;;;29.78;12.51;;;;;;;;;;344322;155;865057;-57
2022/01/13 03:29:32;;;;;;;40.56;14.62;;;;;;;;;;342632;153;865263;-56
2022/01/13 03:30:09;;;;;;;;;;;;;;;;;;339842;156;858784;-58
2022/01/13 03:31:11;;;;;;;26.09;11.73;;;;;;;;;;343704;154;857916;-57
2022/01/13 03:32:12;;;;;;;32.11;12.26;;;;;;;;;;343757;153;857521;-57
2022/01/13 03:33:14;;;;;;;44.67;13.23;;;;;;;;;;342302;153;865202;-58
2022/01/13 03:34:16;;;;;;;38.97;15.03;;;;;;;;;;345111;153;864988;-58
2022/01/13 03:35:18;;;;;;;46.68;14.96;;;;;;;;;;344492;153;866664;-57
2022/01/13 03:36:20;;;;;;;48.47;16.49;;;;;;;;;;342435;154;865076;-57
2022/01/13 03:37:22;;;;;;;40.31;13.67;;;;;;;;;;340853;154;857474;-55
2022/01/13 03:38:24;;;;;;;50.79;15.09;;;;;;;;;;343797;153;866885;-56
2022/01/13 03:39:26;;;;;;;40.50;13.97;;;;;;;;;;345843;153;866636;-56
2022/01/13 03:40:28;;;;;;;36.11;14.29;;;;;;;;;;344145;153;857439;-57
2022/01/13 03:41:29;;;;;;;37.51;13.01;;;;;;;;;;345126;153;857350;-57
2022/01/13 03:42:31;;;;;;;34.53;12.66;;;;;;;;;;344851;153;865908;-57
2022/01/13 03:43:35;;;;;;;38.34;14.56;;;;;;;;;;345739;153;866137;-56
2022/01/13 03:44:36;;;;;;;36.68;12.52;;;;;;;;;;344045;153;865391;-56
2022/01/13 03:45:37;;;;;;;32.54;11.39;;;;;;;;;;345310;154;857550;-56
2022/01/13 03:46:39;;;;;;;32.00;12.54;;;;;;;;;;345577;153;862247;-56
2022/01/13 03:47:40;;;;;;;29.78;9.99;;;;;;;;;;343468;153;865947;-57
2022/01/13 03:48:43;;;;;;;30.04;10.74;;;;;;;;;;344994;154;864186;-56
2022/01/13 03:49:45;;;;;;;37.45;11.90;;;;;;;;;;344135;153;867022;-57
2022/01/13 03:50:46;;;;;;;32.98;11.74;;;;;;;;;;341712;154;864225;-57
2022/01/13 03:51:58;;;;;;;25.54;10.86;;;;;;;;;;344746;154;867344;-58
2022/01/13 03:53:01;;;;;;;33.14;11.39;;;;;;;;;;340397;153;865052;-57
2022/01/13 03:54:05;;;;;;;29.48;11.96;;;;;;;;;;343964;153;856747;-57
2022/01/13 03:55:25;;;;;;;36.40;12.51;;;;;;;;;;344484;153;857969;-57
2022/01/13 03:56:47;;;;;;;30.79;10.59;;;;;;;;;;342104;153;859758;-58
2022/01/13 03:57:57;;;;;;;33.63;10.93;;;;;;;;;;341526;154;857713;-57
2022/01/13 03:59:17;;;;;;;32.43;11.88;;;;;;;;;;341810;153;859531;-57
2022/01/13 04:00:40;;;;;;;36.33;11.35;;;;;;;;;;343105;153;859225;-58
2022/01/13 04:01:55;;;;;;;28.92;11.17;;;;;;;;;;341751;154;857498;-57
2022/01/13 04:02:57;;;;;;;31.47;10.67;;;;;;;;;;340779;155;857356;-57
2022/01/13 04:03:59;;;;;;;28.82;10.62;;;;;;;;;;342821;153;857300;-57
2022/01/13 04:05:00;;;;;;;30.39;11.26;;;;;;;;;;340381;153;865245;-59
2022/01/13 04:06:03;;;;;;;28.64;11.32;;;;;;;;;;340460;156;864652;-56
2022/01/13 04:07:05;;;;;;;34.64;11.70;;;;;;;;;;343907;153;864282;-58
2022/01/13 04:08:07;;;;;;;28.32;11.20;;;;;;;;;;344402;153;858146;-58
2022/01/13 04:09:27;;;;;;;32.54;11.36;;;;;;;;;;344901;153;857375;-56
2022/01/13 04:10:46;;;;;;;25.76;9.94;;;;;;;;;;344201;153;866857;-58
2022/01/13 04:11:48;;;;;;;25.44;10.53;;;;;;;;;;342666;153;857899;-58
2022/01/13 04:12:49;;;;;;;30.97;11.71;;;;;;;;;;342725;153;857272;-57
2022/01/13 04:14:59;;;;;;;26.59;10.36;;;;;;;;;;345202;153;866265;-58
2022/01/13 04:15:59;;;;;;;29.97;11.56;;;;;;;;;;344409;153;866225;-57
2022/01/13 04:17:01;;;;;;;29.93;10.12;;;;;;;;;;342098;155;862660;-58
2022/01/13 04:18:02;;;;;;;29.31;10.29;;;;;;;;;;342220;153;866284;-58
2022/01/13 04:19:05;;;;;;;22.04;9.02;;;;;;;;;;345283;153;865862;-59
2022/01/13 04:20:08;;;;;;;25.57;9.22;;;;;;;;;;345125;153;865051;-58
2022/01/13 04:21:09;;;;;;;22.67;9.87;;;;;;;;;;346841;153;859164;-59
2022/01/13 04:22:11;;;;;;;29.87;10.85;;;;;;;;;;341099;154;857481;-58
2022/01/13 04:23:13;;;;;;;25.52;9.53;;;;;;;;;;342253;153;865208;-58
2022/01/13 04:24:15;;;;;;;23.45;10.06;;;;;;;;;;347605;152;857411;-58
2022/01/13 04:25:21;;;;;;;28.63;10.03;;;;;;;;;;344717;153;864980;-58
2022/01/13 04:26:27;;;;;;;28.22;11.24;;;;;;;;;;343343;153;865141;-58
2022/01/13 04:27:25;;;;;;;23.23;9.85;;;;;;;;;;347226;153;861372;-58
2022/01/13 04:28:28;;;;;;;23.74;9.05;;;;;;;;;;345365;153;859401;-60
2022/01/13 04:29:37;;;;;;;23.69;9.58;;;;;;;;;;341866;153;866565;-59
2022/01/13 04:31:42;;;;;;;26.17;10.27;;;;;;;;;;346108;153;857466;-59
2022/01/13 04:32:43;;;;;;;28.04;11.06;;;;;;;;;;342545;153;857646;-58
2022/01/13 04:33:45;;;;;;;27.04;9.41;;;;;;;;;;346581;153;857515;-58
2022/01/13 04:34:46;;;;;;;26.61;10.04;;;;;;;;;;342200;153;861794;-60
2022/01/13 04:35:48;;;;;;;17.84;7.14;;;;;;;;;;345514;153;866640;-58
2022/01/13 04:36:49;;;;;;;24.12;10.23;;;;;;;;;;341635;153;859460;-58
2022/01/13 04:37:51;;;;;;;24.50;9.64;;;;;;;;;;341643;153;865778;-60
2022/01/13 04:38:53;;;;;;;19.57;9.07;;;;;;;;;;344851;153;866947;-59
2022/01/13 04:39:54;;;;;;;31.89;10.45;;;;;;;;;;343559;154;864877;-58
2022/01/13 04:40:58;;;;;;;23.34;9.49;;;;;;;;;;344060;153;857064;-57
2022/01/13 04:41:59;;;;;;;26.67;8.89;;;;;;;;;;342794;153;865065;-59
2022/01/13 04:43:01;;;;;;;26.91;9.64;;;;;;;;;;343372;154;865107;-59
2022/01/13 04:44:09;;;;;;;21.08;8.22;;;;;;;;;;341421;153;864968;-59
2022/01/13 04:45:11;;;;;;;22.24;7.88;;;;;;;;;;344800;155;865595;-59
2022/01/13 04:46:14;;;;;;;23.85;9.34;;;;;;;;;;343677;153;857759;-60
2022/01/13 04:47:16;;;;;;;25.32;10.01;;;;;;;;;;343389;153;858212;-60
2022/01/13 04:48:17;;;;;;;21.31;8.89;;;;;;;;;;343693;153;864932;-60
2022/01/13 04:50:42;;;;;;;20.52;7.13;;;;;;;;;;333469;158;865255;-59
2022/01/13 04:51:44;;;;;;;19.96;8.24;;;;;;;;;;332923;160;857313;-59
2022/01/13 04:52:46;;;;;;;25.42;8.60;;;;;;;;;;333600;158;865315;-58
2022/01/13 04:53:47;;;;;;;22.80;8.61;;;;;;;;;;333471;158;857426;-59
2022/01/13 04:54:49;;;;;;;10.33;4.88;;;;;;;;;;331354;158;864807;-58
2022/01/13 04:55:53;;;;;;;8.99;5.88;;;;;;;;;;334554;158;865071;-63
2022/01/13 04:57:07;;;;;;;15.89;7.38;;;;;;;;;;334276;158;865125;-62
2022/01/13 04:58:07;;;;;;;20.32;7.59;;;;;;;;;;333993;158;865290;-61
2022/01/13 04:59:08;;;;;;;18.90;8.56;;;;;;;;;;335334;159;857458;-55
2022/01/13 05:00:11;;;;;;;20.06;8.79;;;;;;;;;;333757;158;865145;-52
2022/01/13 05:01:12;;;;;;;20.75;8.52;;;;;;;;;;332171;158;857506;-58
2022/01/13 05:02:16;;;;;;;20.38;8.95;;;;;;;;;;332260;158;858003;-58
2022/01/13 05:03:18;;;;;;;23.66;8.62;;;;;;;;;;331867;158;865019;-61
2022/01/13 05:04:21;;;;;;;26.73;10.25;;;;;;;;;;334406;158;857053;-61
2022/01/13 05:05:22;;;;;;;23.74;7.70;;;;;;;;;;333727;158;865031;-62
2022/01/13 05:06:24;;;;;;;18.77;6.79;;;;;;;;;;332164;158;858980;-61
2022/01/13 05:07:26;;;;;;;17.12;7.95;;;;;;;;;;333485;158;857324;-62
2022/01/13 05:08:27;;;;;;;21.98;8.03;;;;;;;;;;335338;158;864995;-61
2022/01/13 05:09:29;;;;;;;31.89;12.91;;;;;;;;;;333462;158;865869;-60
2022/01/13 05:10:31;;;;;;;22.17;8.89;;;;;;;;;;334311;158;867719;-60
2022/01/13 05:11:33;;;;;;;18.08;8.18;;;;;;;;;;333650;158;859234;-61
2022/01/13 05:12:41;;;;;;;23.94;9.30;;;;;;;;;;331956;158;859414;-60
2022/01/13 05:13:38;;;;;;;15.18;5.74;;;;;;;;;;332536;158;867304;-63
2022/01/13 05:14:40;;;;;;;15.56;7.63;;;;;;;;;;332227;158;865217;-61
2022/01/13 05:15:44;;;;;;;24.54;10.31;;;;;;;;;;333378;158;867275;-60
2022/01/13 05:19:11;;;;;;;17.58;8.22;;;;;;;;;;333940;158;857500;-62
2022/01/13 05:20:13;;;;;;;17.73;7.08;;;;;;;;;;331426;159;859384;-60
2022/01/13 05:21:07;;;;;;;21.72;9.29;;;;;;;;;;332366;158;865427;-61
2022/01/13 05:23:15;;;;;;;22.49;9.87;;;;;;;;;;327887;161;857557;-60
2022/01/13 05:24:17;;;;;;;20.21;9.49;;;;;;;;;;330840;158;857515;-60
2022/01/13 05:25:19;;;;;;;23.60;9.33;;;;;;;;;;334104;158;858120;-62
2022/01/13 05:26:22;;;;;;;20.03;8.15;;;;;;;;;;336280;158;864319;-61
2022/01/13 05:27:24;;;;;;;26.81;11.42;;;;;;;;;;331612;158;857309;-60
2022/01/13 05:28:26;;;;;;;18.43;7.53;;;;;;;;;;333943;158;857436;-61
2022/01/13 05:29:27;;;;;;;29.24;10.94;;;;;;;;;;335825;158;857462;-59
2022/01/13 05:30:29;;;;;;;16.54;7.36;;;;;;;;;;332630;158;866356;-60
2022/01/13 05:31:31;;;;;;;10.66;6.07;;;;;;;;;;334398;158;866517;-62
2022/01/13 05:32:32;;;;;;;19.79;9.16;;;;;;;;;;334094;158;866211;-62
2022/01/13 05:33:34;;;;;;;17.17;7.95;;;;;;;;;;334104;159;866327;-60
2022/01/13 05:34:35;;;;;;;18.45;8.17;;;;;;;;;;333429;158;865697;-60
2022/01/13 05:35:38;;;;;;;23.97;10.19;;;;;;;;;;333941;158;865893;-62
2022/01/13 05:36:40;;;;;;;23.63;9.44;;;;;;;;;;333230;158;865954;-61
2022/01/13 05:37:42;;;;;;;29.01;11.70;;;;;;;;;;332713;158;859542;-59
2022/01/13 05:38:44;;;;;;;26.26;10.08;;;;;;;;;;332714;158;864173;-59
2022/01/13 05:39:46;;;;;;;20.26;9.26;;;;;;;;;;333313;158;858185;-57
2022/01/13 05:40:47;;;;;;;17.96;9.05;;;;;;;;;;336680;158;864836;-59
2022/01/13 05:41:49;;;;;;;26.41;10.71;;;;;;;;;;335435;158;865179;-57
2022/01/13 05:42:51;;;;;;;33.22;11.40;;;;;;;;;;333021;158;864877;-57
2022/01/13 05:43:52;;;;;;;30.14;11.53;;;;;;;;;;332873;159;865071;-59
2022/01/13 05:44:55;;;;;;;26.59;12.34;;;;;;;;;;333338;158;857425;-62
2022/01/13 05:45:57;;;;;;;30.47;12.53;;;;;;;;;;332717;158;866670;-60
2022/01/13 05:46:59;;;;;;;29.79;11.17;;;;;;;;;;333808;158;857474;-57
2022/01/13 05:48:01;;;;;;;20.42;9.91;;;;;;;;;;333193;158;866838;-60
2022/01/13 05:49:02;;;;;;;37.30;13.59;;;;;;;;;;332731;158;866885;-60
2022/01/13 05:50:05;;;;;;;43.43;14.64;;;;;;;;;;334418;158;857449;-57
2022/01/13 05:51:06;;;;;;;41.62;14.77;;;;;;;;;;333465;159;857519;-58
2022/01/13 05:52:08;;;;;;;35.71;15.27;;;;;;;;;;332436;159;860301;-56
2022/01/13 05:53:10;;;;;;;33.99;13.99;;;;;;;;;;331337;159;857398;-58
2022/01/13 05:54:11;;;;;;;34.12;13.29;;;;;;;;;;332462;159;858538;-58
2022/01/13 05:55:13;;;;;;;17.56;7.24;;;;;;;;;;332196;159;865195;-58
2022/01/13 05:56:15;;;;;;;38.68;14.60;;;;;;;;;;331620;158;864764;-58
2022/01/13 05:57:17;;;;;;;33.06;11.87;;;;;;;;;;331202;159;857479;-58
2022/01/13 05:58:19;;;;;;;33.38;11.13;;;;;;;;;;332235;158;865271;-57
2022/01/13 05:59:21;;;;;;;13.72;7.65;;;;;;;;;;331449;158;865214;-59
2022/01/13 06:00:25;;;;;;;31.64;11.93;;;;;;;;;;330696;159;865123;-56
2022/01/13 06:01:26;;;;;;;17.28;6.97;;;;;;;;;;331703;159;858009;-58
2022/01/13 06:02:28;;;;;;;26.93;10.40;;;;;;;;;;331702;159;865171;-58
2022/01/13 06:03:31;;;;;;;29.67;10.97;;;;;;;;;;331137;158;857454;-57
2022/01/13 06:04:32;;;;;;;26.89;11.03;;;;;;;;;;330584;159;857532;-58
2022/01/13 06:05:35;;;;;;;26.65;10.26;;;;;;;;;;329046;159;856312;-59
2022/01/13 06:06:37;;;;;;;20.82;10.49;;;;;;;;;;331402;158;865002;-58
2022/01/13 06:07:38;;;;;;;18.18;8.80;;;;;;;;;;330739;159;859292;-58
2022/01/13 06:08:40;;;;;;;20.27;9.25;;;;;;;;;;332824;159;866018;-59
2022/01/13 06:09:41;;;;;;;26.61;11.25;;;;;;;;;;332558;159;867944;-58
2022/01/13 06:10:45;;;;;;;21.81;9.56;;;;;;;;;;331724;158;858088;-59
2022/01/13 06:12:00;;;;;;;26.23;10.31;;;;;;;;;;330947;159;864091;-59
2022/01/13 06:12:56;;;;;;;22.53;10.19;;;;;;;;;;332897;159;857998;-59
2022/01/13 06:13:57;;;;;;;20.91;9.55;;;;;;;;;;332425;158;860087;-59
2022/01/13 06:15:00;;;;;;;21.00;9.08;;;;;;;;;;332418;159;865604;-58
2022/01/13 06:16:02;;;;;;;26.44;10.75;;;;;;;;;;332194;159;864541;-58
2022/01/13 06:17:03;;;;;;;20.24;8.70;;;;;;;;;;336327;158;863840;-59
2022/01/13 06:18:07;;;;;;;31.30;12.44;;;;;;;;;;331812;159;864496;-58
2022/01/13 06:19:08;;;;;;;12.39;5.71;;;;;;;;;;332465;159;864580;-59
2022/01/13 06:20:11;;;;;;;27.85;10.51;;;;;;;;;;331616;159;856719;-59
2022/01/13 06:21:12;;;;;;;23.23;9.75;;;;;;;;;;331631;158;857508;-58
2022/01/13 06:22:14;;;;;;;29.69;12.01;;;;;;;;;;332923;159;857586;-58
2022/01/13 06:23:15;;;;;;;12.66;6.52;;;;;;;;;;337975;158;866844;-59